createdAt,value
2018-11-13T00:00:26.323Z,101244.65
2018-11-13T00:02:57.379Z,101240.34
2018-11-13T00:05:27.512Z,101237.78
2018-11-13T00:07:56.838Z,101239.05
2018-11-13T00:10:26.853Z,101245.64
2018-11-13T00:12:56.943Z,101256.80
2018-11-13T00:15:26.706Z,101261.47
2018-11-13T00:17:56.118Z,101258.19
2018-11-13T00:20:26.480Z,101266.89
2018-11-13T00:22:55.973Z,101268.51
2018-11-13T00:25:25.508Z,101277.75
2018-11-13T00:27:55.005Z,101281.17
2018-11-13T00:30:25.587Z,101287.77
2018-11-13T00:32:55.006Z,101290.23
2018-11-13T00:35:24.744Z,101290.06
2018-11-13T00:37:54.615Z,101287.70
2018-11-13T00:40:24.163Z,101294.16
2018-11-13T00:42:53.657Z,101292.01
2018-11-13T00:45:23.650Z,101300.02
2018-11-13T00:47:53.068Z,101298.02
2018-11-13T00:50:22.581Z,101290.02
2018-11-13T00:52:52.076Z,101284.48
2018-11-13T00:55:21.609Z,101277.05
2018-11-13T00:57:51.088Z,101265.23
2018-11-13T01:00:21.541Z,101261.70
2018-11-13T01:02:51.006Z,101267.26
2018-11-13T01:05:21.571Z,101260.45
2018-11-13T01:07:52.004Z,101262.00
2018-11-13T01:10:22.339Z,101266.16
2018-11-13T01:12:52.300Z,101266.86
2018-11-13T01:15:21.755Z,101260.73
2018-11-13T01:17:51.501Z,101270.09
2018-11-13T01:20:21.351Z,101274.28
2018-11-13T01:22:51.511Z,101272.66
2018-11-13T01:25:20.970Z,101264.78
2018-11-13T01:27:50.507Z,101258.77
2018-11-13T01:30:20.152Z,101265.64
2018-11-13T01:32:49.378Z,101268.75
2018-11-13T01:35:19.406Z,101268.59
2018-11-13T01:37:48.983Z,101276.44
2018-11-13T01:40:20.170Z,101281.63
2018-11-13T01:42:49.560Z,101292.27
2018-11-13T01:45:20.050Z,101285.86
2018-11-13T01:47:49.612Z,101295.84
2018-11-13T01:50:19.765Z,101304.91
2018-11-13T01:52:49.585Z,101302.15
2018-11-13T01:55:18.929Z,101303.29
2018-11-13T01:57:48.259Z,101296.37
2018-11-13T02:00:20.030Z,101298.37
2018-11-13T02:02:51.203Z,101300.69
2018-11-13T02:05:22.101Z,101301.27
2018-11-13T02:07:53.342Z,101297.39
2018-11-13T02:10:22.956Z,101301.84
2018-11-13T02:12:53.285Z,101298.90
2018-11-13T02:15:23.188Z,101304.79
2018-11-13T02:17:52.695Z,101313.33
2018-11-13T02:20:22.798Z,101315.69
2018-11-13T02:22:52.279Z,101315.81
2018-11-13T02:25:22.210Z,101314.64
2018-11-13T02:27:51.706Z,101324.02
2018-11-13T02:30:22.725Z,101313.36
2018-11-13T02:32:52.575Z,101319.06
2018-11-13T02:35:22.113Z,101312.55
2018-11-13T02:37:51.971Z,101314.61
2018-11-13T02:40:21.495Z,101305.83
2018-11-13T02:42:51.462Z,101315.13
2018-11-13T02:45:21.139Z,101308.33
2018-11-13T02:47:50.820Z,101304.85
2018-11-13T02:50:21.751Z,101298.56
2018-11-13T02:52:51.017Z,101300.98
2018-11-13T02:55:21.426Z,101303.30
2018-11-13T02:57:50.700Z,101292.56
2018-11-13T03:00:21.479Z,101292.91
2018-11-13T03:02:51.344Z,101298.61
2018-11-13T03:05:22.112Z,101300.44
2018-11-13T03:07:51.580Z,101309.19
2018-11-13T03:10:21.745Z,101316.22
2018-11-13T03:12:51.231Z,101320.20
2018-11-13T03:15:21.915Z,101326.59
2018-11-13T03:17:51.152Z,101341.70
2018-11-13T03:20:21.213Z,101339.88
2018-11-13T03:22:52.354Z,101343.50
2018-11-13T03:25:23.621Z,101350.72
2018-11-13T03:27:53.938Z,101369.98
2018-11-13T03:30:25.755Z,101383.75
2018-11-13T03:32:55.451Z,101381.77
2018-11-13T03:35:25.523Z,101392.34
2018-11-13T03:37:55.683Z,101382.31
2018-11-13T03:40:25.135Z,101384.58
2018-11-13T03:42:55.314Z,101391.84
2018-11-13T03:45:25.415Z,101392.45
2018-11-13T03:47:54.655Z,101370.87
2018-11-13T03:50:24.813Z,101375.83
2018-11-13T03:52:54.350Z,101373.28
2018-11-13T03:55:24.325Z,101360.75
2018-11-13T03:57:53.770Z,101360.28
2018-11-13T04:00:24.232Z,101363.32
2018-11-13T04:02:53.581Z,101370.19
2018-11-13T04:05:23.371Z,101376.33
2018-11-13T04:07:54.297Z,101376.91
2018-11-13T04:10:24.639Z,101369.34
2018-11-13T04:12:53.859Z,101372.58
2018-11-13T04:15:24.742Z,101365.80
2018-11-13T04:17:54.773Z,101360.22
2018-11-13T04:20:24.464Z,101360.84
2018-11-13T04:22:53.666Z,101364.20
2018-11-13T04:25:23.079Z,101353.34
2018-11-13T04:27:52.519Z,101351.51
2018-11-13T04:30:22.012Z,101355.14
2018-11-13T04:32:51.521Z,101362.36
2018-11-13T04:35:20.743Z,101360.56
2018-11-13T04:37:49.959Z,101364.31
2018-11-13T04:40:20.962Z,101370.92
2018-11-13T04:42:52.279Z,101387.35
2018-11-13T04:45:23.794Z,101389.15
2018-11-13T04:47:53.734Z,101393.98
2018-11-13T04:50:23.810Z,101384.19
2018-11-13T04:52:53.742Z,101392.52
2018-11-13T04:55:24.225Z,101391.69
2018-11-13T04:57:53.965Z,101389.27
2018-11-13T05:00:24.300Z,101398.33
2018-11-13T05:02:54.081Z,101399.53
2018-11-13T05:05:23.541Z,101395.79
2018-11-13T05:07:54.239Z,101399.14
2018-11-13T05:10:25.452Z,101407.97
2018-11-13T05:12:54.702Z,101415.98
2018-11-13T05:15:24.406Z,101410.36
2018-11-13T05:17:54.131Z,101411.92
2018-11-13T05:20:23.410Z,101413.09
2018-11-13T05:22:53.127Z,101415.34
2018-11-13T05:25:22.586Z,101421.87
2018-11-13T05:27:52.172Z,101420.92
2018-11-13T05:30:22.773Z,101419.36
2018-11-13T05:32:52.759Z,101426.82
2018-11-13T05:35:23.063Z,101432.98
2018-11-13T05:37:52.598Z,101431.16
2018-11-13T05:40:23.398Z,101432.22
2018-11-13T05:42:53.064Z,101438.59
2018-11-13T05:45:24.012Z,101432.93
2018-11-13T05:47:53.714Z,101437.88
2018-11-13T05:50:23.656Z,101450.42
2018-11-13T05:52:54.310Z,101458.13
2018-11-13T05:55:25.062Z,101465.15
2018-11-13T05:57:54.775Z,101469.38
2018-11-13T06:00:29.483Z,101464.45
2018-11-13T06:02:59.656Z,101468.66
2018-11-13T06:05:30.278Z,101471.20
2018-11-13T06:08:00.801Z,101461.78
2018-11-13T06:10:30.710Z,101465.53
2018-11-13T06:13:00.206Z,101466.74
2018-11-13T06:15:29.926Z,101484.71
2018-11-13T06:17:59.662Z,101482.05
2018-11-13T06:20:29.156Z,101473.27
2018-11-13T06:22:59.460Z,101482.30
2018-11-13T06:25:30.447Z,101480.87
2018-11-13T06:27:59.668Z,101475.66
2018-11-13T06:30:29.206Z,101479.17
2018-11-13T06:32:58.674Z,101491.73
2018-11-13T06:35:28.313Z,101501.85
2018-11-13T06:37:57.721Z,101500.29
2018-11-13T06:40:27.246Z,101513.56
2018-11-13T06:42:56.682Z,101521.89
2018-11-13T06:45:27.052Z,101522.62
2018-11-13T06:47:56.510Z,101529.14
2018-11-13T06:50:26.090Z,101535.28
2018-11-13T06:52:55.552Z,101531.30
2018-11-13T06:55:29.338Z,101535.41
2018-11-13T06:57:59.107Z,101544.70
2018-11-13T07:00:29.825Z,101541.44
2018-11-13T07:02:59.332Z,101544.09
2018-11-13T07:05:29.009Z,101542.90
2018-11-13T07:07:58.534Z,101546.88
2018-11-13T07:10:29.163Z,101552.22
2018-11-13T07:12:59.186Z,101558.35
2018-11-13T07:15:30.218Z,101550.88
2018-11-13T07:18:01.931Z,101564.39
2018-11-13T07:20:32.666Z,101567.89
2018-11-13T07:23:02.324Z,101573.70
2018-11-13T07:25:31.859Z,101571.52
2018-11-13T07:28:01.392Z,101570.33
2018-11-13T07:30:30.842Z,101570.33
2018-11-13T07:33:00.157Z,101570.56
2018-11-13T07:35:29.779Z,101581.89
2018-11-13T07:38:00.668Z,101592.51
2018-11-13T07:40:30.332Z,101597.35
2018-11-13T07:42:59.785Z,101600.14
2018-11-13T07:45:29.295Z,101613.52
2018-11-13T07:47:59.080Z,101621.72
2018-11-13T07:50:29.222Z,101628.22
2018-11-13T07:52:58.790Z,101620.25
2018-11-13T07:55:28.143Z,101627.11
2018-11-13T07:57:57.624Z,101632.63
2018-11-13T08:00:26.860Z,101625.77
2018-11-13T08:02:56.973Z,101626.86
2018-11-13T08:05:26.233Z,101636.66
2018-11-13T08:07:56.154Z,101648.70
2018-11-13T08:10:25.796Z,101643.76
2018-11-13T08:12:55.290Z,101650.37
2018-11-13T08:15:24.778Z,101645.05
2018-11-13T08:17:54.327Z,101655.98
2018-11-13T08:20:23.823Z,101651.17
2018-11-13T08:22:53.301Z,101657.55
2018-11-13T08:25:23.125Z,101662.62
2018-11-13T08:27:52.496Z,101670.52
2018-11-13T08:30:22.693Z,101672.28
2018-11-13T08:32:52.327Z,101674.60
2018-11-13T08:35:21.843Z,101683.39
2018-11-13T08:37:51.672Z,101681.98
2018-11-13T08:40:21.689Z,101685.48
2018-11-13T08:42:51.587Z,101679.32
2018-11-13T08:45:21.288Z,101677.89
2018-11-13T08:47:51.393Z,101678.36
2018-11-13T08:50:20.767Z,101689.16
2018-11-13T08:52:50.688Z,101684.38
2018-11-13T08:55:20.127Z,101690.91
2018-11-13T08:57:50.075Z,101698.81
2018-11-13T09:00:20.199Z,101697.86
2018-11-13T09:02:50.251Z,101701.28
2018-11-13T09:05:19.931Z,101712.91
2018-11-13T09:07:49.294Z,101713.30
2018-11-13T09:10:19.197Z,101706.49
2018-11-13T09:12:48.923Z,101709.51
2018-11-13T09:15:19.938Z,101706.67
2018-11-13T09:17:49.383Z,101712.34
2018-11-13T09:20:20.143Z,101706.91
2018-11-13T09:22:50.168Z,101708.13
2018-11-13T09:25:20.990Z,101706.88
2018-11-13T09:27:50.872Z,101713.42
2018-11-13T09:30:21.900Z,101714.20
2018-11-13T09:32:51.383Z,101719.80
2018-11-13T09:35:21.241Z,101716.86
2018-11-13T09:37:50.733Z,101719.92
2018-11-13T09:40:21.221Z,101712.09
2018-11-13T09:42:52.308Z,101711.02
2018-11-13T09:45:22.090Z,101706.70
2018-11-13T09:47:52.320Z,101704.94
2018-11-13T09:50:22.420Z,101719.44
2018-11-13T09:52:52.875Z,101720.05
2018-11-13T09:55:23.345Z,101718.00
2018-11-13T09:57:52.568Z,101719.58
2018-11-13T10:00:23.789Z,101715.42
2018-11-13T10:03:01.178Z,101717.87
2018-11-13T10:05:30.729Z,101720.41
2018-11-13T10:08:00.774Z,101720.88
2018-11-13T10:10:30.982Z,101723.59
2018-11-13T10:13:00.395Z,101726.51
2018-11-13T10:15:31.190Z,101728.14
2018-11-13T10:18:01.043Z,101723.98
2018-11-13T10:20:30.338Z,101734.48
2018-11-13T10:23:00.349Z,101729.45
2018-11-13T10:25:30.634Z,101722.39
2018-11-13T10:28:00.093Z,101683.87
2018-11-13T10:30:29.665Z,101730.31
2018-11-13T10:32:59.182Z,101727.94
2018-11-13T10:35:28.580Z,101728.53
2018-11-13T10:37:58.355Z,101738.16
2018-11-13T10:40:27.630Z,101732.78
2018-11-13T10:42:56.927Z,101742.86
2018-11-13T10:45:28.099Z,101739.10
2018-11-13T10:47:57.930Z,101744.66
2018-11-13T10:50:27.751Z,101749.14
2018-11-13T10:52:57.515Z,101747.83
2018-11-13T10:55:27.099Z,101748.11
2018-11-13T10:57:56.623Z,101739.58
2018-11-13T11:00:28.416Z,101751.24
2018-11-13T11:03:03.309Z,101749.21
2018-11-13T11:05:33.336Z,101751.24
2018-11-13T11:08:03.037Z,101746.77
2018-11-13T11:10:32.574Z,101744.86
2018-11-13T11:13:02.321Z,101745.46
2018-11-13T11:15:31.579Z,101754.65
2018-11-13T11:18:01.353Z,101755.59
2018-11-13T11:20:30.593Z,101759.23
2018-11-13T11:22:59.897Z,101762.58
2018-11-13T11:25:29.766Z,101761.59
2018-11-13T11:27:59.314Z,101748.05
2018-11-13T11:30:29.349Z,101753.50
2018-11-13T11:32:58.838Z,101753.99
2018-11-13T11:35:28.406Z,101756.00
2018-11-13T11:37:57.910Z,101746.70
2018-11-13T11:40:27.434Z,101738.36
2018-11-13T11:42:56.703Z,101746.88
2018-11-13T11:45:26.805Z,101747.38
2018-11-13T11:47:56.339Z,101740.81
2018-11-13T11:50:26.210Z,101753.72
2018-11-13T11:52:55.534Z,101753.81
2018-11-13T11:55:25.030Z,101746.55
2018-11-13T11:57:54.333Z,101742.58
2018-11-13T12:00:30.113Z,101746.62
2018-11-13T12:02:59.311Z,101742.98
2018-11-13T12:05:28.799Z,101755.13
2018-11-13T12:07:58.723Z,101741.59
2018-11-13T12:10:28.241Z,101757.53
2018-11-13T12:12:57.765Z,101750.13
2018-11-13T12:15:28.023Z,101751.89
2018-11-13T12:17:57.361Z,101755.12
2018-11-13T12:20:27.614Z,101753.00
2018-11-13T12:22:57.242Z,101748.72
2018-11-13T12:25:26.688Z,101747.91
2018-11-13T12:27:56.248Z,101747.90
2018-11-13T12:30:26.311Z,101741.52
2018-11-13T12:32:55.853Z,101747.75
2018-11-13T12:35:25.315Z,101750.68
2018-11-13T12:37:55.047Z,101738.66
2018-11-13T12:40:25.558Z,101755.74
2018-11-13T12:42:55.283Z,101768.31
2018-11-13T12:45:24.787Z,101770.51
2018-11-13T12:47:54.699Z,101775.48
2018-11-13T12:50:24.227Z,101774.23
2018-11-13T12:52:54.322Z,101767.00
2018-11-13T12:55:24.314Z,101768.34
2018-11-13T12:57:53.724Z,101771.27
2018-11-13T13:00:24.677Z,101787.70
2018-11-13T13:02:54.623Z,101787.48
2018-11-13T13:05:23.890Z,101779.69
2018-11-13T13:07:53.566Z,101791.64
2018-11-13T13:10:23.918Z,101785.07
2018-11-13T13:12:53.218Z,101783.60
2018-11-13T13:15:22.735Z,101796.86
2018-11-13T13:17:52.211Z,101795.46
2018-11-13T13:20:24.242Z,101798.69
2018-11-13T13:22:53.728Z,101799.67
2018-11-13T13:25:24.135Z,101814.27
2018-11-13T13:27:53.512Z,101805.12
2018-11-13T13:30:24.451Z,101819.75
2018-11-13T13:32:54.383Z,101823.08
2018-11-13T13:35:36.830Z,101815.33
2018-11-13T13:38:07.799Z,101835.53
2018-11-13T13:40:38.113Z,101824.58
2018-11-13T13:43:08.606Z,101818.28
2018-11-13T13:45:38.607Z,101828.12
2018-11-13T13:48:08.435Z,101833.67
2018-11-13T13:50:38.581Z,101838.77
2018-11-13T13:53:09.070Z,101846.28
2018-11-13T13:55:38.579Z,101847.34
2018-11-13T13:58:08.075Z,101851.28
2018-11-13T14:00:38.648Z,101853.20
2018-11-13T14:03:09.339Z,101857.93
2018-11-13T14:05:39.499Z,101863.08
2018-11-13T14:08:09.948Z,101853.48
2018-11-13T14:10:39.931Z,101865.11
2018-11-13T14:13:09.188Z,101870.35
2018-11-13T14:15:38.741Z,101872.03
2018-11-13T14:18:08.454Z,101877.83
2018-11-13T14:20:38.383Z,101876.82
2018-11-13T14:23:07.589Z,101875.09
2018-11-13T14:25:37.146Z,101879.98
2018-11-13T14:28:07.066Z,101881.09
2018-11-13T14:30:37.600Z,101886.91
2018-11-13T14:33:08.554Z,101890.47
2018-11-13T14:35:37.828Z,101893.60
2018-11-13T14:38:07.851Z,101898.36
2018-11-13T14:40:39.118Z,101909.69
2018-11-13T14:43:09.016Z,101916.34
2018-11-13T14:45:38.258Z,101920.81
2018-11-13T14:48:08.728Z,101923.14
2018-11-13T14:50:39.322Z,101924.98
2018-11-13T14:53:09.544Z,101936.35
2018-11-13T14:55:40.635Z,101943.14
2018-11-13T14:58:12.104Z,101945.72
2018-11-13T15:00:42.191Z,101943.49
2018-11-13T15:03:13.230Z,101953.81
2018-11-13T15:05:42.726Z,101953.81
2018-11-13T15:08:12.756Z,101960.50
2018-11-13T15:10:50.591Z,101958.91
2018-11-13T15:13:21.147Z,101966.55
2018-11-13T15:15:50.436Z,101968.47
2018-11-13T15:18:19.636Z,101966.84
2018-11-13T15:20:50.627Z,101968.97
2018-11-13T15:23:20.120Z,101978.15
2018-11-13T15:25:49.807Z,101978.53
2018-11-13T15:28:19.346Z,101993.47
2018-11-13T15:30:50.367Z,102000.87
2018-11-13T15:33:21.657Z,102002.94
2018-11-13T15:35:50.904Z,102006.57
2018-11-13T15:38:20.175Z,102007.67
2018-11-13T15:40:49.942Z,102017.33
2018-11-13T15:43:20.027Z,102015.55
2018-11-13T15:45:50.183Z,102028.28
2018-11-13T15:48:19.685Z,102035.33
2018-11-13T15:50:49.758Z,102034.94
2018-11-13T15:53:19.327Z,102033.39
2018-11-13T15:55:48.586Z,102036.06
2018-11-13T15:58:17.900Z,102043.56
2018-11-13T16:00:47.449Z,102045.97
2018-11-13T16:03:21.641Z,102042.70
2018-11-13T16:05:53.469Z,102052.05
2018-11-13T16:08:23.288Z,102059.41
2018-11-13T16:10:52.690Z,102063.77
2018-11-13T16:13:22.475Z,102066.56
2018-11-13T16:15:52.233Z,102077.55
2018-11-13T16:18:23.448Z,102075.14
2018-11-13T16:20:52.922Z,102081.55
2018-11-13T16:23:22.367Z,102084.73
2018-11-13T16:25:52.099Z,102085.92
2018-11-13T16:28:21.338Z,102088.47
2018-11-13T16:30:51.101Z,102096.34
2018-11-13T16:33:20.261Z,102092.13
2018-11-13T16:35:49.509Z,102095.99
2018-11-13T16:38:19.102Z,102097.42
2018-11-13T16:40:48.466Z,102092.00
2018-11-13T16:43:18.155Z,102095.85
2018-11-13T16:45:47.322Z,102096.21
2018-11-13T16:48:16.828Z,102092.19
2018-11-13T16:50:46.279Z,102097.26
2018-11-13T16:53:16.482Z,102103.91
2018-11-13T16:55:51.004Z,102105.03
2018-11-13T16:58:20.814Z,102113.58
2018-11-13T17:00:50.405Z,102111.28
2018-11-13T17:03:20.594Z,102105.56
2018-11-13T17:05:51.175Z,102117.32
2018-11-13T17:08:21.253Z,102119.73
2018-11-13T17:10:50.710Z,102122.02
2018-11-13T17:13:20.291Z,102127.44
2018-11-13T17:15:49.786Z,102125.47
2018-11-13T17:18:19.019Z,102131.13
2018-11-13T17:20:48.619Z,102132.45
2018-11-13T17:23:18.545Z,102133.45
2018-11-13T17:25:47.985Z,102134.80
2018-11-13T17:28:18.330Z,102136.37
2018-11-13T17:30:47.790Z,102134.97
2018-11-13T17:33:17.088Z,102147.44
2018-11-13T17:35:46.580Z,102149.00
2018-11-13T17:38:16.544Z,102155.09
2018-11-13T17:40:46.066Z,102158.13
2018-11-13T17:43:15.544Z,102148.99
2018-11-13T17:45:45.074Z,102149.22
2018-11-13T17:48:14.223Z,102155.72
2018-11-13T17:50:44.666Z,102160.47
2018-11-13T17:53:14.399Z,102159.45
2018-11-13T17:55:43.925Z,102156.16
2018-11-13T17:58:14.760Z,102102.31
2018-11-13T18:00:45.850Z,102168.30
2018-11-13T18:03:16.349Z,102169.12
2018-11-13T18:05:46.826Z,102169.87
2018-11-13T18:08:16.382Z,102177.41
2018-11-13T18:10:46.895Z,102171.06
2018-11-13T18:13:16.620Z,102171.83
2018-11-13T18:15:46.246Z,102175.36
2018-11-13T18:18:15.760Z,102170.36
2018-11-13T18:20:45.281Z,102174.66
2018-11-13T18:23:14.970Z,102179.96
2018-11-13T18:25:45.315Z,102181.23
2018-11-13T18:28:15.451Z,102188.05
2018-11-13T18:30:44.932Z,102184.02
2018-11-13T18:33:14.913Z,102187.65
2018-11-13T18:35:44.853Z,102189.81
2018-11-13T18:38:16.833Z,102181.67
2018-11-13T18:40:47.623Z,102182.81
2018-11-13T18:43:17.748Z,102184.35
2018-11-13T18:45:47.861Z,102184.50
2018-11-13T18:48:17.973Z,102194.47
2018-11-13T18:50:47.364Z,102197.11
2018-11-13T18:53:17.155Z,102199.77
2018-11-13T18:55:46.922Z,102203.40
2018-11-13T18:58:16.979Z,102199.92
2018-11-13T19:00:46.365Z,102196.98
2018-11-13T19:03:16.450Z,102212.13
2018-11-13T19:05:46.672Z,102207.59
2018-11-13T19:08:16.106Z,102206.72
2018-11-13T19:10:47.699Z,102209.31
2018-11-13T19:13:24.504Z,102210.72
2018-11-13T19:15:56.066Z,102218.56
2018-11-13T19:18:25.713Z,102218.52
2018-11-13T19:20:55.910Z,102217.74
2018-11-13T19:23:25.240Z,102222.95
2018-11-13T19:25:55.104Z,102225.62
2018-11-13T19:28:24.655Z,102225.81
2018-11-13T19:30:54.186Z,102234.31
2018-11-13T19:33:23.639Z,102219.58
2018-11-13T19:35:53.376Z,102218.53
2018-11-13T19:38:22.854Z,102234.05
2018-11-13T19:40:52.384Z,102234.72
2018-11-13T19:43:22.067Z,102232.73
2018-11-13T19:45:52.418Z,102238.59
2018-11-13T19:48:21.907Z,102236.32
2018-11-13T19:50:51.487Z,102243.81
2018-11-13T19:53:20.984Z,102239.75
2018-11-13T19:55:50.417Z,102240.05
2018-11-13T19:58:19.932Z,102242.88
2018-11-13T20:00:49.474Z,102246.09
2018-11-13T20:03:18.983Z,102244.78
2018-11-13T20:05:48.871Z,102251.69
2018-11-13T20:08:19.138Z,102253.19
2018-11-13T20:10:48.870Z,102260.31
2018-11-13T20:13:18.409Z,102260.39
2018-11-13T20:15:48.369Z,102269.38
2018-11-13T20:18:18.434Z,102270.70
2018-11-13T20:20:48.409Z,102273.55
2018-11-13T20:23:17.855Z,102271.08
2018-11-13T20:25:47.460Z,102273.06
2018-11-13T20:28:17.866Z,102273.55
2018-11-13T20:30:47.367Z,102274.02
2018-11-13T20:33:16.575Z,102275.42
2018-11-13T20:35:46.375Z,102275.16
2018-11-13T20:38:15.897Z,102282.53
2018-11-13T20:40:45.379Z,102282.99
2018-11-13T20:43:15.085Z,102282.24
2018-11-13T20:45:44.400Z,102276.86
2018-11-13T20:48:14.114Z,102284.23
2018-11-13T20:50:43.859Z,102280.25
2018-11-13T20:53:13.981Z,102283.84
2018-11-13T20:55:43.230Z,102284.71
2018-11-13T20:58:12.792Z,102289.34
2018-11-13T21:00:42.043Z,102295.01
2018-11-13T21:03:11.569Z,102292.91
2018-11-13T21:05:41.084Z,102296.20
2018-11-13T21:08:10.597Z,102294.23
2018-11-13T21:10:40.629Z,102292.40
2018-11-13T21:13:10.640Z,102295.42
2018-11-13T21:15:40.163Z,102287.69
2018-11-13T21:18:10.036Z,102292.73
2018-11-13T21:20:39.512Z,102295.63
2018-11-13T21:23:08.756Z,102294.72
2018-11-13T21:25:38.567Z,102296.55
2018-11-13T21:28:07.878Z,102303.84
2018-11-13T21:30:37.427Z,102301.05
2018-11-13T21:33:06.879Z,102298.06
2018-11-13T21:35:36.580Z,102298.43
2018-11-13T21:38:06.682Z,102295.50
2018-11-13T21:40:36.196Z,102294.23
2018-11-13T21:43:06.125Z,102299.72
2018-11-13T21:45:35.667Z,102297.36
2018-11-13T21:48:05.548Z,102299.48
2018-11-13T21:50:35.106Z,102303.72
2018-11-13T21:53:04.573Z,102304.09
2018-11-13T21:55:34.128Z,102309.94
2018-11-13T21:58:03.701Z,102305.64
2018-11-13T22:00:34.365Z,102306.66
2018-11-13T22:03:06.596Z,102313.36
2018-11-13T22:05:37.117Z,102309.97
2018-11-13T22:08:06.498Z,102306.00
2018-11-13T22:10:36.375Z,102304.74
2018-11-13T22:13:05.974Z,102307.87
2018-11-13T22:15:35.664Z,102308.91
2018-11-13T22:18:05.541Z,102306.34
2018-11-13T22:20:35.219Z,102308.28
2018-11-13T22:23:04.771Z,102315.08
2018-11-13T22:25:34.053Z,102314.78
2018-11-13T22:28:03.634Z,102305.69
2018-11-13T22:30:34.211Z,102306.99
2018-11-13T22:33:03.634Z,102316.62
2018-11-13T22:35:33.080Z,102322.41
2018-11-13T22:38:02.802Z,102292.05
2018-11-13T22:40:32.158Z,102318.37
2018-11-13T22:43:02.419Z,102317.20
2018-11-13T22:45:32.551Z,102323.36
2018-11-13T22:48:02.040Z,102318.29
2018-11-13T22:50:32.970Z,102327.59
2018-11-13T22:53:02.580Z,102327.80
2018-11-13T22:55:31.800Z,102330.12
2018-11-13T22:58:02.538Z,102325.49
2018-11-13T23:00:39.439Z,102330.48
2018-11-13T23:03:10.519Z,102327.21
2018-11-13T23:05:40.310Z,102330.05
2018-11-13T23:08:11.016Z,102323.44
2018-11-13T23:10:41.613Z,102320.69
2018-11-13T23:13:11.733Z,102319.69
2018-11-13T23:15:41.376Z,102325.23
2018-11-13T23:18:11.284Z,102323.08
2018-11-13T23:20:40.765Z,102321.09
2018-11-13T23:23:09.975Z,102329.20
2018-11-13T23:25:39.810Z,102319.84
2018-11-13T23:28:09.499Z,102322.70
2018-11-13T23:30:39.202Z,102320.55
2018-11-13T23:33:09.028Z,102320.38
2018-11-13T23:35:38.211Z,102319.72
2018-11-13T23:38:08.347Z,102323.08
2018-11-13T23:40:38.047Z,102326.02
2018-11-13T23:43:07.940Z,102333.44
2018-11-13T23:45:37.556Z,102336.71
2018-11-13T23:48:07.637Z,102342.80
2018-11-13T23:50:37.094Z,102350.03
2018-11-13T23:53:07.206Z,102347.23
2018-11-13T23:55:36.697Z,102362.84
2018-11-13T23:58:06.125Z,102362.50
